sensor_id;sensor_type;location;lat;lon;timestamp;pressure;altitude;pressure_sealevel;temperature;humidity
25080;BME280;13071;48.868;9.996;2023-10-09T00:01:02;97110.81;;;12.57;94.25
25080;BME280;13071;48.868;9.996;2023-10-09T00:03:30;97111.13;;;12.55;94.58
25080;BME280;13071;48.868;9.996;2023-10-09T00:05:58;97120.06;;;12.55;94.40
25080;BME280;13071;48.868;9.996;2023-10-09T00:08:27;97113.06;;;12.54;94.98
25080;BME280;13071;48.868;9.996;2023-10-09T00:10:59;97108.81;;;12.66;95.80
25080;BME280;13071;48.868;9.996;2023-10-09T00:13:39;97110.22;;;12.72;96.10
25080;BME280;13071;48.868;9.996;2023-10-09T00:16:15;97108.81;;;12.86;95.37
25080;BME280;13071;48.868;9.996;2023-10-09T00:18:49;97107.34;;;12.89;93.82
25080;BME280;13071;48.868;9.996;2023-10-09T00:21:17;97107.03;;;12.90;93.62
25080;BME280;13071;48.868;9.996;2023-10-09T00:23:45;97105.03;;;12.79;91.35
25080;BME280;13071;48.868;9.996;2023-10-09T00:26:18;97098.56;;;12.71;91.03
25080;BME280;13071;48.868;9.996;2023-10-09T00:28:46;97094.78;;;12.64;90.63
25080;BME280;13071;48.868;9.996;2023-10-09T00:31:16;97098.44;;;12.68;91.67
25080;BME280;13071;48.868;9.996;2023-10-09T00:33:55;97095.13;;;12.62;91.81
25080;BME280;13071;48.868;9.996;2023-10-09T00:36:28;97095.38;;;12.48;91.44
25080;BME280;13071;48.868;9.996;2023-10-09T00:38:55;97101.75;;;12.52;91.81
25080;BME280;13071;48.868;9.996;2023-10-09T00:41:22;97100.78;;;12.48;92.56
25080;BME280;13071;48.868;9.996;2023-10-09T00:43:50;97096.50;;;12.47;93.20
25080;BME280;13071;48.868;9.996;2023-10-09T00:46:19;97096.75;;;12.54;93.73
25080;BME280;13071;48.868;9.996;2023-10-09T00:48:52;97097.50;;;12.64;93.85
25080;BME280;13071;48.868;9.996;2023-10-09T00:51:20;97089.94;;;12.69;94.10
25080;BME280;13071;48.868;9.996;2023-10-09T00:53:53;97092.13;;;12.76;93.69
25080;BME280;13071;48.868;9.996;2023-10-09T00:56:21;97081.38;;;12.79;93.24
25080;BME280;13071;48.868;9.996;2023-10-09T00:58:55;97075.63;;;12.81;93.19
25080;BME280;13071;48.868;9.996;2023-10-09T01:01:25;97082.97;;;12.80;93.29
25080;BME280;13071;48.868;9.996;2023-10-09T01:04:01;97068.72;;;12.83;92.78
25080;BME280;13071;48.868;9.996;2023-10-09T01:06:32;97065.81;;;12.88;92.38
25080;BME280;13071;48.868;9.996;2023-10-09T01:09:00;97066.47;;;12.85;92.34
25080;BME280;13071;48.868;9.996;2023-10-09T01:11:35;97067.72;;;12.88;91.97
25080;BME280;13071;48.868;9.996;2023-10-09T01:14:12;97064.44;;;12.82;92.45
25080;BME280;13071;48.868;9.996;2023-10-09T01:16:39;97056.81;;;12.76;92.91
25080;BME280;13071;48.868;9.996;2023-10-09T01:19:08;97053.31;;;12.75;92.64
25080;BME280;13071;48.868;9.996;2023-10-09T01:21:45;97058.94;;;12.70;92.77
25080;BME280;13071;48.868;9.996;2023-10-09T01:24:13;97058.81;;;12.67;92.93
25080;BME280;13071;48.868;9.996;2023-10-09T01:26:42;97050.09;;;12.61;93.12
25080;BME280;13071;48.868;9.996;2023-10-09T01:29:12;97050.19;;;12.65;92.91
25080;BME280;13071;48.868;9.996;2023-10-09T01:31:42;97049.28;;;12.61;93.80
25080;BME280;13071;48.868;9.996;2023-10-09T01:34:17;97047.50;;;12.65;93.84
25080;BME280;13071;48.868;9.996;2023-10-09T01:36:44;97050.53;;;12.63;94.19
25080;BME280;13071;48.868;9.996;2023-10-09T01:39:15;97042.25;;;12.80;94.46
25080;BME280;13071;48.868;9.996;2023-10-09T01:41:49;97047.19;;;12.78;94.42
25080;BME280;13071;48.868;9.996;2023-10-09T01:44:23;97045.63;;;12.77;94.20
25080;BME280;13071;48.868;9.996;2023-10-09T01:46:51;97045.06;;;12.84;94.03
25080;BME280;13071;48.868;9.996;2023-10-09T01:49:20;97042.34;;;12.84;93.88
25080;BME280;13071;48.868;9.996;2023-10-09T01:51:55;97041.50;;;12.92;94.00
25080;BME280;13071;48.868;9.996;2023-10-09T01:54:25;97037.78;;;12.96;93.52
25080;BME280;13071;48.868;9.996;2023-10-09T01:57:02;97033.91;;;12.97;93.21
25080;BME280;13071;48.868;9.996;2023-10-09T01:59:31;97032.56;;;13.04;92.88
25080;BME280;13071;48.868;9.996;2023-10-09T02:01:58;97024.09;;;13.05;92.17
25080;BME280;13071;48.868;9.996;2023-10-09T02:04:26;97029.41;;;13.02;92.50
25080;BME280;13071;48.868;9.996;2023-10-09T02:06:54;97024.31;;;13.00;92.63
25080;BME280;13071;48.868;9.996;2023-10-09T02:09:21;97029.28;;;12.98;92.61
25080;BME280;13071;48.868;9.996;2023-10-09T02:11:56;97022.19;;;13.06;92.39
25080;BME280;13071;48.868;9.996;2023-10-09T02:14:23;97027.72;;;13.09;92.53
25080;BME280;13071;48.868;9.996;2023-10-09T02:16:49;97024.56;;;13.07;92.54
25080;BME280;13071;48.868;9.996;2023-10-09T02:19:30;97022.78;;;13.11;92.52
25080;BME280;13071;48.868;9.996;2023-10-09T02:22:00;97030.13;;;13.11;92.26
25080;BME280;13071;48.868;9.996;2023-10-09T02:24:28;97024.69;;;13.11;91.86
25080;BME280;13071;48.868;9.996;2023-10-09T02:27:10;97029.47;;;13.14;91.85
25080;BME280;13071;48.868;9.996;2023-10-09T02:29:38;97033.09;;;13.18;91.31
25080;BME280;13071;48.868;9.996;2023-10-09T02:32:07;97029.03;;;13.24;90.66
25080;BME280;13071;48.868;9.996;2023-10-09T02:34:41;97017.94;;;13.29;90.48
25080;BME280;13071;48.868;9.996;2023-10-09T02:37:11;97017.63;;;13.30;90.14
25080;BME280;13071;48.868;9.996;2023-10-09T02:39:39;97016.50;;;13.31;90.47
25080;BME280;13071;48.868;9.996;2023-10-09T02:42:14;97021.13;;;13.31;90.74
25080;BME280;13071;48.868;9.996;2023-10-09T02:44:53;97007.06;;;13.29;90.74
25080;BME280;13071;48.868;9.996;2023-10-09T02:47:21;97010.59;;;13.29;91.11
25080;BME280;13071;48.868;9.996;2023-10-09T02:49:50;97012.50;;;13.29;91.25
25080;BME280;13071;48.868;9.996;2023-10-09T02:52:17;97005.69;;;13.23;91.03
25080;BME280;13071;48.868;9.996;2023-10-09T02:54:49;97012.50;;;13.17;90.93
25080;BME280;13071;48.868;9.996;2023-10-09T02:57:26;97008.63;;;13.18;90.61
25080;BME280;13071;48.868;9.996;2023-10-09T03:00:01;97005.25;;;13.21;90.73
25080;BME280;13071;48.868;9.996;2023-10-09T03:02:29;97012.63;;;13.20;90.58
25080;BME280;13071;48.868;9.996;2023-10-09T03:04:57;97007.19;;;13.20;90.43
25080;BME280;13071;48.868;9.996;2023-10-09T03:07:24;97003.78;;;13.23;90.21
25080;BME280;13071;48.868;9.996;2023-10-09T03:09:51;97010.47;;;13.26;90.22
25080;BME280;13071;48.868;9.996;2023-10-09T03:12:19;97003.91;;;13.27;90.24
25080;BME280;13071;48.868;9.996;2023-10-09T03:14:53;97004.34;;;13.29;90.21
25080;BME280;13071;48.868;9.996;2023-10-09T03:17:20;96998.13;;;13.28;90.12
25080;BME280;13071;48.868;9.996;2023-10-09T03:19:48;96994.97;;;13.26;89.88
25080;BME280;13071;48.868;9.996;2023-10-09T03:22:14;96994.03;;;13.22;89.20
25080;BME280;13071;48.868;9.996;2023-10-09T03:24:41;96988.59;;;13.22;89.28
25080;BME280;13071;48.868;9.996;2023-10-09T03:27:10;96986.88;;;13.18;89.10
25080;BME280;13071;48.868;9.996;2023-10-09T03:29:36;96983.91;;;13.11;89.18
25080;BME280;13071;48.868;9.996;2023-10-09T03:32:04;96988.38;;;13.15;88.54
25080;BME280;13071;48.868;9.996;2023-10-09T03:34:32;96983.38;;;13.17;87.84
25080;BME280;13071;48.868;9.996;2023-10-09T03:36:58;96988.59;;;13.22;87.45
25080;BME280;13071;48.868;9.996;2023-10-09T03:39:30;96986.00;;;13.26;86.88
25080;BME280;13071;48.868;9.996;2023-10-09T03:42:03;96979.09;;;13.28;86.60
25080;BME280;13071;48.868;9.996;2023-10-09T03:44:31;96983.50;;;13.33;86.39
25080;BME280;13071;48.868;9.996;2023-10-09T03:46:59;96986.69;;;13.35;86.05
25080;BME280;13071;48.868;9.996;2023-10-09T03:49:28;96980.47;;;13.34;85.91
25080;BME280;13071;48.868;9.996;2023-10-09T03:51:55;96986.94;;;13.66;82.29
25080;BME280;13071;48.868;9.996;2023-10-09T03:54:21;96977.97;;;13.78;80.76
25080;BME280;13071;48.868;9.996;2023-10-09T03:56:49;96976.31;;;14.01;79.33
25080;BME280;13071;48.868;9.996;2023-10-09T03:59:16;96978.47;;;14.08;79.16
25080;BME280;13071;48.868;9.996;2023-10-09T04:01:45;96982.34;;;14.07;77.75
25080;BME280;13071;48.868;9.996;2023-10-09T04:04:13;96975.75;;;14.08;77.37
25080;BME280;13071;48.868;9.996;2023-10-09T04:06:41;96978.00;;;14.18;76.19
25080;BME280;13071;48.868;9.996;2023-10-09T04:09:10;96981.63;;;14.22;75.75
25080;BME280;13071;48.868;9.996;2023-10-09T04:12:00;96977.53;;;14.28;76.43
25080;BME280;13071;48.868;9.996;2023-10-09T04:14:46;96986.94;;;14.31;75.23
25080;BME280;13071;48.868;9.996;2023-10-09T04:17:20;96977.75;;;14.35;74.94
25080;BME280;13071;48.868;9.996;2023-10-09T04:19:59;96983.44;;;14.30;74.92
25080;BME280;13071;48.868;9.996;2023-10-09T04:22:44;96986.72;;;14.23;75.95
25080;BME280;13071;48.868;9.996;2023-10-09T04:25:16;96986.88;;;14.15;76.31
25080;BME280;13071;48.868;9.996;2023-10-09T04:27:51;96983.59;;;13.97;77.21
25080;BME280;13071;48.868;9.996;2023-10-09T04:30:18;96988.78;;;14.14;76.17
25080;BME280;13071;48.868;9.996;2023-10-09T04:32:45;96982.69;;;14.05;76.06
25080;BME280;13071;48.868;9.996;2023-10-09T04:35:12;96981.44;;;14.03;75.80
25080;BME280;13071;48.868;9.996;2023-10-09T04:37:50;96982.69;;;13.93;75.41
25080;BME280;13071;48.868;9.996;2023-10-09T04:40:25;96994.28;;;13.78;77.18
25080;BME280;13071;48.868;9.996;2023-10-09T04:43:06;96992.25;;;13.75;77.43
25080;BME280;13071;48.868;9.996;2023-10-09T04:45:45;96989.31;;;13.68;77.98
25080;BME280;13071;48.868;9.996;2023-10-09T04:48:31;96983.28;;;13.62;77.58
25080;BME280;13071;48.868;9.996;2023-10-09T04:51:04;96985.56;;;13.60;77.87
25080;BME280;13071;48.868;9.996;2023-10-09T04:53:47;96987.94;;;13.50;78.71
25080;BME280;13071;48.868;9.996;2023-10-09T04:56:25;96991.91;;;13.52;77.98
25080;BME280;13071;48.868;9.996;2023-10-09T04:58:57;96989.63;;;13.42;78.52
25080;BME280;13071;48.868;9.996;2023-10-09T05:01:29;96986.81;;;13.38;78.99
25080;BME280;13071;48.868;9.996;2023-10-09T05:04:09;96986.22;;;13.33;79.00
25080;BME280;13071;48.868;9.996;2023-10-09T05:06:52;96987.25;;;13.28;80.00
25080;BME280;13071;48.868;9.996;2023-10-09T05:09:23;96992.00;;;13.19;80.56
25080;BME280;13071;48.868;9.996;2023-10-09T05:11:49;96987.47;;;13.11;80.71
25080;BME280;13071;48.868;9.996;2023-10-09T05:14:33;96983.81;;;13.07;80.75
25080;BME280;13071;48.868;9.996;2023-10-09T05:17:10;96983.34;;;13.05;81.32
25080;BME280;13071;48.868;9.996;2023-10-09T05:19:41;96982.13;;;13.15;81.27
25080;BME280;13071;48.868;9.996;2023-10-09T05:22:20;96983.31;;;12.93;81.92
25080;BME280;13071;48.868;9.996;2023-10-09T05:24:57;96986.47;;;12.95;82.19
25080;BME280;13071;48.868;9.996;2023-10-09T05:27:24;96983.28;;;12.81;83.22
25080;BME280;13071;48.868;9.996;2023-10-09T05:30:06;96983.50;;;12.76;83.49
25080;BME280;13071;48.868;9.996;2023-10-09T05:32:50;96981.59;;;12.88;82.83
25080;BME280;13071;48.868;9.996;2023-10-09T05:35:21;96989.13;;;12.71;83.94
25080;BME280;13071;48.868;9.996;2023-10-09T05:37:55;96984.63;;;12.75;84.06
25080;BME280;13071;48.868;9.996;2023-10-09T05:40:28;96990.53;;;12.77;83.66
25080;BME280;13071;48.868;9.996;2023-10-09T05:42:57;96983.97;;;12.90;82.65
25080;BME280;13071;48.868;9.996;2023-10-09T05:45:25;96992.84;;;12.99;82.54
25080;BME280;13071;48.868;9.996;2023-10-09T05:48:09;96997.66;;;13.14;81.81
25080;BME280;13071;48.868;9.996;2023-10-09T05:50:49;96988.28;;;13.36;79.84
25080;BME280;13071;48.868;9.996;2023-10-09T05:53:30;96994.97;;;13.51;78.24
25080;BME280;13071;48.868;9.996;2023-10-09T05:56:22;96985.13;;;13.70;76.97
25080;BME280;13071;48.868;9.996;2023-10-09T05:59:03;97002.25;;;13.71;77.48
25080;BME280;13071;48.868;9.996;2023-10-09T06:01:46;96985.47;;;13.81;76.92
25080;BME280;13071;48.868;9.996;2023-10-09T06:04:30;96991.19;;;14.04;74.88
25080;BME280;13071;48.868;9.996;2023-10-09T06:07:14;96987.44;;;14.08;75.45
25080;BME280;13071;48.868;9.996;2023-10-09T06:09:48;96989.69;;;14.18;74.54
25080;BME280;13071;48.868;9.996;2023-10-09T06:12:20;96993.63;;;14.21;75.09
25080;BME280;13071;48.868;9.996;2023-10-09T06:14:58;96998.09;;;14.13;76.40
25080;BME280;13071;48.868;9.996;2023-10-09T06:17:44;96989.97;;;14.53;73.18
25080;BME280;13071;48.868;9.996;2023-10-09T06:20:15;96996.78;;;14.47;74.48
25080;BME280;13071;48.868;9.996;2023-10-09T06:23:00;96991.00;;;14.49;74.95
25080;BME280;13071;48.868;9.996;2023-10-09T06:25:41;96995.78;;;14.40;75.88
25080;BME280;13071;48.868;9.996;2023-10-09T06:28:18;96999.72;;;14.54;75.29
25080;BME280;13071;48.868;9.996;2023-10-09T06:30:58;96996.34;;;14.45;75.85
25080;BME280;13071;48.868;9.996;2023-10-09T06:33:45;96999.72;;;14.54;76.14
25080;BME280;13071;48.868;9.996;2023-10-09T06:39:56;97004.06;;;14.43;76.62
25080;BME280;13071;48.868;9.996;2023-10-09T06:42:52;97000.53;;;14.43;77.32
25080;BME280;13071;48.868;9.996;2023-10-09T06:45:22;97004.16;;;14.47;77.65
25080;BME280;13071;48.868;9.996;2023-10-09T06:47:58;96994.38;;;14.58;78.95
25080;BME280;13071;48.868;9.996;2023-10-09T06:50:35;96993.00;;;14.52;79.19
25080;BME280;13071;48.868;9.996;2023-10-09T06:53:15;97001.00;;;14.73;78.19
25080;BME280;13071;48.868;9.996;2023-10-09T06:56:11;96995.75;;;14.80;77.51
25080;BME280;13071;48.868;9.996;2023-10-09T06:58:48;96998.72;;;14.75;78.21
25080;BME280;13071;48.868;9.996;2023-10-09T07:01:16;97000.75;;;14.78;78.44
25080;BME280;13071;48.868;9.996;2023-10-09T07:04:05;97007.91;;;14.98;76.26
25080;BME280;13071;48.868;9.996;2023-10-09T07:06:44;97010.56;;;15.10;75.43
25080;BME280;13071;48.868;9.996;2023-10-09T07:09:17;97006.53;;;15.04;76.69
25080;BME280;13071;48.868;9.996;2023-10-09T07:11:46;97017.53;;;15.07;77.26
25080;BME280;13071;48.868;9.996;2023-10-09T07:14:29;97011.34;;;15.10;76.49
25080;BME280;13071;48.868;9.996;2023-10-09T07:17:14;97009.72;;;15.22;75.40
25080;BME280;13071;48.868;9.996;2023-10-09T07:19:53;97015.34;;;15.29;75.55
25080;BME280;13071;48.868;9.996;2023-10-09T07:22:35;97012.88;;;15.24;76.16
25080;BME280;13071;48.868;9.996;2023-10-09T07:25:19;97017.19;;;15.25;76.54
25080;BME280;13071;48.868;9.996;2023-10-09T07:28:06;97017.38;;;15.32;76.91
25080;BME280;13071;48.868;9.996;2023-10-09T07:30:44;97012.88;;;15.39;75.23
25080;BME280;13071;48.868;9.996;2023-10-09T07:33:13;97016.09;;;15.57;74.78
25080;BME280;13071;48.868;9.996;2023-10-09T07:35:56;97020.22;;;15.67;73.10
25080;BME280;13071;48.868;9.996;2023-10-09T07:38:24;97015.91;;;15.81;72.46
25080;BME280;13071;48.868;9.996;2023-10-09T07:40:55;97016.78;;;15.85;72.72
25080;BME280;13071;48.868;9.996;2023-10-09T07:43:28;97019.84;;;15.84;72.96
25080;BME280;13071;48.868;9.996;2023-10-09T07:46:01;97018.00;;;15.88;73.12
25080;BME280;13071;48.868;9.996;2023-10-09T07:48:47;97027.50;;;15.94;74.06
25080;BME280;13071;48.868;9.996;2023-10-09T07:51:18;97021.31;;;16.13;72.12
25080;BME280;13071;48.868;9.996;2023-10-09T07:53:49;97027.06;;;16.08;72.86
25080;BME280;13071;48.868;9.996;2023-10-09T07:56:22;97031.34;;;16.09;73.21
25080;BME280;13071;48.868;9.996;2023-10-09T07:58:49;97031.97;;;16.18;73.67
25080;BME280;13071;48.868;9.996;2023-10-09T08:01:17;97035.19;;;16.23;74.12
25080;BME280;13071;48.868;9.996;2023-10-09T08:03:50;97041.88;;;16.26;74.00
25080;BME280;13071;48.868;9.996;2023-10-09T08:06:27;97045.94;;;16.32;72.82
25080;BME280;13071;48.868;9.996;2023-10-09T08:09:08;97046.06;;;16.39;70.46
25080;BME280;13071;48.868;9.996;2023-10-09T08:11:53;97043.56;;;16.50;70.94
25080;BME280;13071;48.868;9.996;2023-10-09T08:14:37;97043.75;;;16.57;71.20
25080;BME280;13071;48.868;9.996;2023-10-09T08:17:11;97047.06;;;16.66;70.74
25080;BME280;13071;48.868;9.996;2023-10-09T08:19:47;97048.16;;;16.80;71.29
25080;BME280;13071;48.868;9.996;2023-10-09T08:22:25;97046.44;;;16.92;70.87
25080;BME280;13071;48.868;9.996;2023-10-09T08:25:08;97047.72;;;16.98;70.07
25080;BME280;13071;48.868;9.996;2023-10-09T08:27:34;97040.94;;;17.11;68.01
25080;BME280;13071;48.868;9.996;2023-10-09T08:30:21;97037.84;;;17.12;68.15
25080;BME280;13071;48.868;9.996;2023-10-09T08:33:10;97042.00;;;17.25;68.01
25080;BME280;13071;48.868;9.996;2023-10-09T08:36:08;97044.94;;;17.36;68.26
25080;BME280;13071;48.868;9.996;2023-10-09T08:38:34;97049.38;;;17.44;67.72
25080;BME280;13071;48.868;9.996;2023-10-09T08:41:09;97054.19;;;17.51;67.77
25080;BME280;13071;48.868;9.996;2023-10-09T08:43:48;97060.13;;;17.56;67.15
25080;BME280;13071;48.868;9.996;2023-10-09T08:46:19;97052.03;;;17.60;67.63
25080;BME280;13071;48.868;9.996;2023-10-09T08:48:46;97061.59;;;17.69;67.26
25080;BME280;13071;48.868;9.996;2023-10-09T08:51:14;97056.91;;;17.70;67.01
25080;BME280;13071;48.868;9.996;2023-10-09T08:53:43;97051.47;;;17.74;67.10
25080;BME280;13071;48.868;9.996;2023-10-09T08:56:12;97056.38;;;17.87;67.06
25080;BME280;13071;48.868;9.996;2023-10-09T08:58:41;97055.97;;;17.85;66.59
25080;BME280;13071;48.868;9.996;2023-10-09T09:01:08;97051.56;;;18.03;66.22
25080;BME280;13071;48.868;9.996;2023-10-09T09:03:41;97057.03;;;18.03;65.66
25080;BME280;13071;48.868;9.996;2023-10-09T09:06:09;97059.03;;;18.06;66.75
25080;BME280;13071;48.868;9.996;2023-10-09T09:08:37;97063.41;;;18.11;67.21
25080;BME280;13071;48.868;9.996;2023-10-09T09:11:05;97067.06;;;18.19;66.76
25080;BME280;13071;48.868;9.996;2023-10-09T09:13:41;97064.81;;;18.24;67.43
25080;BME280;13071;48.868;9.996;2023-10-09T09:16:14;97067.16;;;18.26;66.46
25080;BME280;13071;48.868;9.996;2023-10-09T09:18:50;97072.00;;;18.36;67.52
25080;BME280;13071;48.868;9.996;2023-10-09T09:21:21;97074.44;;;18.41;66.59
25080;BME280;13071;48.868;9.996;2023-10-09T09:24:00;97069.97;;;18.55;67.32
25080;BME280;13071;48.868;9.996;2023-10-09T09:26:36;97058.81;;;18.71;65.74
25080;BME280;13071;48.868;9.996;2023-10-09T09:29:04;97070.19;;;18.70;65.89
25080;BME280;13071;48.868;9.996;2023-10-09T09:31:32;97065.13;;;18.75;67.00
25080;BME280;13071;48.868;9.996;2023-10-09T09:34:04;97065.56;;;18.77;66.62
25080;BME280;13071;48.868;9.996;2023-10-09T09:36:49;97080.09;;;18.81;65.39
25080;BME280;13071;48.868;9.996;2023-10-09T09:39:21;97079.06;;;18.89;65.24
25080;BME280;13071;48.868;9.996;2023-10-09T09:41:54;97079.16;;;19.00;63.28
25080;BME280;13071;48.868;9.996;2023-10-09T09:44:22;97087.03;;;19.02;63.84
25080;BME280;13071;48.868;9.996;2023-10-09T09:46:52;97085.09;;;19.06;63.05
25080;BME280;13071;48.868;9.996;2023-10-09T09:49:20;97073.44;;;19.12;63.63
25080;BME280;13071;48.868;9.996;2023-10-09T09:51:48;97070.41;;;19.21;63.49
25080;BME280;13071;48.868;9.996;2023-10-09T09:54:14;97067.78;;;19.31;65.38
25080;BME280;13071;48.868;9.996;2023-10-09T09:56:44;97066.63;;;19.36;65.41
25080;BME280;13071;48.868;9.996;2023-10-09T09:59:17;97071.78;;;19.41;66.10
25080;BME280;13071;48.868;9.996;2023-10-09T10:01:49;97074.03;;;19.28;64.21
25080;BME280;13071;48.868;9.996;2023-10-09T10:04:24;97074.34;;;19.57;62.50
25080;BME280;13071;48.868;9.996;2023-10-09T10:06:54;97079.69;;;19.83;63.18
25080;BME280;13071;48.868;9.996;2023-10-09T10:09:35;97071.63;;;20.04;62.18
25080;BME280;13071;48.868;9.996;2023-10-09T10:12:06;97077.66;;;20.24;61.48
25080;BME280;13071;48.868;9.996;2023-10-09T10:14:53;97071.19;;;20.53;60.66
25080;BME280;13071;48.868;9.996;2023-10-09T10:17:22;97065.03;;;20.74;59.21
25080;BME280;13071;48.868;9.996;2023-10-09T10:20:06;97066.69;;;20.93;57.45
25080;BME280;13071;48.868;9.996;2023-10-09T10:23:15;97059.75;;;21.24;59.97
25080;BME280;13071;48.868;9.996;2023-10-09T10:25:44;97065.31;;;21.34;57.96
25080;BME280;13071;48.868;9.996;2023-10-09T10:28:22;97065.34;;;21.48;58.45
25080;BME280;13071;48.868;9.996;2023-10-09T10:31:01;97056.66;;;21.36;57.61
25080;BME280;13071;48.868;9.996;2023-10-09T10:34:03;97056.28;;;21.51;57.73
25080;BME280;13071;48.868;9.996;2023-10-09T10:36:32;97046.84;;;21.52;58.14
25080;BME280;13071;48.868;9.996;2023-10-09T10:39:00;97052.34;;;21.49;58.23
25080;BME280;13071;48.868;9.996;2023-10-09T10:41:35;97056.66;;;21.46;57.58
25080;BME280;13071;48.868;9.996;2023-10-09T10:44:05;97053.47;;;21.27;59.26
25080;BME280;13071;48.868;9.996;2023-10-09T10:46:46;97062.56;;;21.31;57.63
25080;BME280;13071;48.868;9.996;2023-10-09T10:49:18;97066.88;;;21.35;56.01
25080;BME280;13071;48.868;9.996;2023-10-09T10:51:47;97064.47;;;21.27;57.47
25080;BME280;13071;48.868;9.996;2023-10-09T10:54:21;97069.19;;;21.23;57.05
25080;BME280;13071;48.868;9.996;2023-10-09T10:57:13;97066.84;;;21.21;57.32
25080;BME280;13071;48.868;9.996;2023-10-09T10:59:46;97067.16;;;21.12;58.32
25080;BME280;13071;48.868;9.996;2023-10-09T11:02:16;97060.88;;;21.08;57.16
25080;BME280;13071;48.868;9.996;2023-10-09T11:04:48;97054.88;;;20.82;58.35
25080;BME280;13071;48.868;9.996;2023-10-09T11:07:21;97056.06;;;20.84;57.88
25080;BME280;13071;48.868;9.996;2023-10-09T11:09:54;97057.22;;;20.80;56.70
25080;BME280;13071;48.868;9.996;2023-10-09T11:12:45;97046.13;;;20.65;57.15
25080;BME280;13071;48.868;9.996;2023-10-09T11:15:34;97054.31;;;20.51;57.77
25080;BME280;13071;48.868;9.996;2023-10-09T11:18:09;97052.69;;;20.43;57.92
25080;BME280;13071;48.868;9.996;2023-10-09T11:20:43;97055.47;;;20.47;58.56
25080;BME280;13071;48.868;9.996;2023-10-09T11:23:22;97050.00;;;20.57;58.15
25080;BME280;13071;48.868;9.996;2023-10-09T11:25:55;97044.50;;;20.50;57.87
25080;BME280;13071;48.868;9.996;2023-10-09T11:28:41;97055.84;;;20.49;58.41
25080;BME280;13071;48.868;9.996;2023-10-09T11:31:15;97055.50;;;20.57;59.12
25080;BME280;13071;48.868;9.996;2023-10-09T11:33:45;97053.56;;;20.58;59.19
25080;BME280;13071;48.868;9.996;2023-10-09T11:36:14;97059.88;;;20.65;58.83
25080;BME280;13071;48.868;9.996;2023-10-09T11:38:40;97059.91;;;20.69;59.19
25080;BME280;13071;48.868;9.996;2023-10-09T11:41:13;97065.41;;;20.73;58.60
25080;BME280;13071;48.868;9.996;2023-10-09T11:43:49;97057.13;;;20.62;59.33
25080;BME280;13071;48.868;9.996;2023-10-09T11:46:21;97064.94;;;20.56;60.23
25080;BME280;13071;48.868;9.996;2023-10-09T11:49:06;97064.09;;;20.45;60.53
25080;BME280;13071;48.868;9.996;2023-10-09T11:52:05;97040.44;;;20.34;60.85
25080;BME280;13071;48.868;9.996;2023-10-09T11:54:49;97034.56;;;20.32;61.78
25080;BME280;13071;48.868;9.996;2023-10-09T11:57:16;97038.78;;;20.22;65.69
25080;BME280;13071;48.868;9.996;2023-10-09T11:59:42;97043.78;;;20.06;67.93
25080;BME280;13071;48.868;9.996;2023-10-09T12:02:11;97024.09;;;20.00;67.21
25080;BME280;13071;48.868;9.996;2023-10-09T12:04:38;97033.84;;;19.94;67.43
25080;BME280;13071;48.868;9.996;2023-10-09T12:07:07;97032.50;;;19.74;68.01
25080;BME280;13071;48.868;9.996;2023-10-09T12:09:35;97034.63;;;19.91;67.45
25080;BME280;13071;48.868;9.996;2023-10-09T12:12:03;97025.56;;;19.87;67.62
25080;BME280;13071;48.868;9.996;2023-10-09T12:14:30;97026.72;;;19.82;67.85
25080;BME280;13071;48.868;9.996;2023-10-09T12:16:59;97018.03;;;19.77;66.84
25080;BME280;13071;48.868;9.996;2023-10-09T12:19:32;97019.66;;;19.85;67.65
25080;BME280;13071;48.868;9.996;2023-10-09T12:21:59;97020.56;;;20.00;68.05
25080;BME280;13071;48.868;9.996;2023-10-09T12:24:27;97022.22;;;20.08;67.97
25080;BME280;13071;48.868;9.996;2023-10-09T12:26:55;97016.75;;;20.15;68.07
25080;BME280;13071;48.868;9.996;2023-10-09T12:29:22;97020.41;;;20.33;70.93
25080;BME280;13071;48.868;9.996;2023-10-09T12:31:49;97027.81;;;20.29;69.56
25080;BME280;13071;48.868;9.996;2023-10-09T12:34:23;97018.13;;;20.42;67.45
25080;BME280;13071;48.868;9.996;2023-10-09T12:36:53;97013.88;;;20.52;66.77
25080;BME280;13071;48.868;9.996;2023-10-09T12:39:20;96999.38;;;20.65;63.77
25080;BME280;13071;48.868;9.996;2023-10-09T12:41:47;96989.97;;;20.70;65.24
25080;BME280;13071;48.868;9.996;2023-10-09T12:44:14;96982.53;;;20.78;67.71
25080;BME280;13071;48.868;9.996;2023-10-09T12:46:44;96971.59;;;20.99;67.31
25080;BME280;13071;48.868;9.996;2023-10-09T12:49:17;96954.31;;;21.09;68.03
25080;BME280;13071;48.868;9.996;2023-10-09T12:51:44;96944.09;;;21.13;68.03
25080;BME280;13071;48.868;9.996;2023-10-09T12:54:12;96944.91;;;21.10;68.86
25080;BME280;13071;48.868;9.996;2023-10-09T12:56:40;96934.66;;;21.07;67.76
25080;BME280;13071;48.868;9.996;2023-10-09T12:59:06;96933.53;;;21.19;68.21
25080;BME280;13071;48.868;9.996;2023-10-09T13:01:40;96938.59;;;21.13;67.81
25080;BME280;13071;48.868;9.996;2023-10-09T13:04:09;96943.28;;;21.02;66.37
25080;BME280;13071;48.868;9.996;2023-10-09T13:06:37;96951.16;;;21.03;66.06
25080;BME280;13071;48.868;9.996;2023-10-09T13:09:09;96945.28;;;21.08;66.68
25080;BME280;13071;48.868;9.996;2023-10-09T13:11:37;96948.47;;;21.14;66.24
25080;BME280;13071;48.868;9.996;2023-10-09T13:14:05;96955.56;;;21.15;63.75
25080;BME280;13071;48.868;9.996;2023-10-09T13:16:37;96959.47;;;21.18;63.69
25080;BME280;13071;48.868;9.996;2023-10-09T13:19:03;96952.38;;;21.17;63.18
25080;BME280;13071;48.868;9.996;2023-10-09T13:21:35;96963.41;;;21.17;64.35
25080;BME280;13071;48.868;9.996;2023-10-09T13:24:04;96961.09;;;21.26;62.82
25080;BME280;13071;48.868;9.996;2023-10-09T13:26:31;96966.97;;;21.24;62.34
25080;BME280;13071;48.868;9.996;2023-10-09T13:29:03;96956.72;;;21.18;61.54
25080;BME280;13071;48.868;9.996;2023-10-09T13:31:34;96962.59;;;21.12;62.42
25080;BME280;13071;48.868;9.996;2023-10-09T13:34:03;96959.88;;;21.20;62.82
25080;BME280;13071;48.868;9.996;2023-10-09T13:36:32;96945.72;;;21.18;61.59